Terminal Aerodrome Forecast
Issued by NWS Greer, SC

Home | Current Version | Previous Version | Text Only | Print | Product List | Glossary On
Versions: 1 2 3 4 5 6 7 8 9 10 11 12 13 14 15 16 17 18 19 20 21 22 23 24 25 26 27 28 29 30 31 32 33 34 35 36 37 38 39 40 41 42 43 44 45 46 47 48 49 50
000
FTUS42 KGSP 292334
TAFCLT
TAF
KCLT 292334Z 3000/3024 18004KT P6SM VCSH FEW050 SCT250
     FM300300 00000KT P6SM SCT250
     FM301000 00000KT 5SM BR FEW040 SCT250
     FM301300 21003KT P6SM SCT250
     FM301600 25005KT P6SM BKN050
     FM302000 29003KT P6SM BKN250 PROB30 3020/3024 4SM TSRA
      BKN040CB=

USA.gov is the U.S. government's official web portal to all federal, state and local government web resources and services.